Terminal Aerodrome Forecast
Issued by NWS

Home | Current Version | Previous Version | Text Only | Print | Product List | Glossary Off
Versions: 1 2 3 4 5 6 7 8 9 10 11 12 13 14 15 16 17 18 19 20

237
FTUS43 KMPX 082320
TAFAXN
TAF
KAXN 082320Z 0900/0924 33016G24KT 6SM -SN OVC025
      TEMPO 0900/0903 3SM -SN BLSN
     FM090700 34015G22KT P6SM SCT025
     FM091200 24013G20KT P6SM SKC=

USA.gov is the U.S. government's official web portal to all federal, state and local government web resources and services.